sensor_id;sensor_type;location;lat;lon;timestamp;P1;durP1;ratioP1;P2;durP2;ratioP2
65275;SDS011;51875;49.994;14.052;2023-09-19T00:00:10;2.40;;;1.17;;
65275;SDS011;51875;49.994;14.052;2023-09-19T00:01:28;1.48;;;1.35;;
65275;SDS011;51875;49.994;14.052;2023-09-19T00:02:52;1.00;;;0.80;;
65275;SDS011;51875;49.994;14.052;2023-09-19T00:04:14;3.85;;;1.00;;
65275;SDS011;51875;49.994;14.052;2023-09-19T00:05:30;1.55;;;0.88;;
65275;SDS011;51875;49.994;14.052;2023-09-19T00:06:49;1.88;;;1.00;;
65275;SDS011;51875;49.994;14.052;2023-09-19T00:08:05;3.72;;;1.10;;
65275;SDS011;51875;49.994;14.052;2023-09-19T00:09:21;2.13;;;0.95;;
65275;SDS011;51875;49.994;14.052;2023-09-19T00:10:36;2.08;;;0.88;;
65275;SDS011;51875;49.994;14.052;2023-09-19T00:11:52;2.22;;;0.90;;
65275;SDS011;51875;49.994;14.052;2023-09-19T00:13:08;1.10;;;0.90;;
65275;SDS011;51875;49.994;14.052;2023-09-19T00:14:27;2.92;;;1.17;;
65275;SDS011;51875;49.994;14.052;2023-09-19T00:15:44;2.25;;;1.00;;
65275;SDS011;51875;49.994;14.052;2023-09-19T00:17:03;2.72;;;0.88;;
65275;SDS011;51875;49.994;14.052;2023-09-19T00:18:24;3.60;;;1.17;;
65275;SDS011;51875;49.994;14.052;2023-09-19T00:19:43;1.77;;;0.93;;
65275;SDS011;51875;49.994;14.052;2023-09-19T00:20:59;2.30;;;0.85;;
65275;SDS011;51875;49.994;14.052;2023-09-19T00:22:14;2.35;;;1.00;;
65275;SDS011;51875;49.994;14.052;2023-09-19T00:23:31;2.22;;;1.10;;
65275;SDS011;51875;49.994;14.052;2023-09-19T00:24:47;1.38;;;1.00;;
65275;SDS011;51875;49.994;14.052;2023-09-19T00:26:03;1.80;;;1.10;;
65275;SDS011;51875;49.994;14.052;2023-09-19T00:27:19;2.55;;;1.23;;
65275;SDS011;51875;49.994;14.052;2023-09-19T00:28:35;1.65;;;1.10;;
65275;SDS011;51875;49.994;14.052;2023-09-19T00:29:50;1.73;;;1.10;;
65275;SDS011;51875;49.994;14.052;2023-09-19T00:31:08;2.17;;;0.95;;
65275;SDS011;51875;49.994;14.052;2023-09-19T00:32:23;2.10;;;1.17;;
65275;SDS011;51875;49.994;14.052;2023-09-19T00:33:39;2.35;;;1.23;;
65275;SDS011;51875;49.994;14.052;2023-09-19T00:34:55;2.42;;;1.20;;
65275;SDS011;51875;49.994;14.052;2023-09-19T00:36:11;1.50;;;1.30;;
65275;SDS011;51875;49.994;14.052;2023-09-19T00:37:27;1.30;;;1.00;;
65275;SDS011;51875;49.994;14.052;2023-09-19T00:38:42;6.28;;;1.10;;
65275;SDS011;51875;49.994;14.052;2023-09-19T00:39:59;1.35;;;1.00;;
65275;SDS011;51875;49.994;14.052;2023-09-19T00:41:15;1.80;;;1.20;;
65275;SDS011;51875;49.994;14.052;2023-09-19T00:42:31;1.50;;;1.02;;
65275;SDS011;51875;49.994;14.052;2023-09-19T00:43:46;2.05;;;1.05;;
65275;SDS011;51875;49.994;14.052;2023-09-19T00:45:06;1.38;;;0.93;;
65275;SDS011;51875;49.994;14.052;2023-09-19T00:46:26;2.80;;;0.90;;
65275;SDS011;51875;49.994;14.052;2023-09-19T00:47:49;1.10;;;1.00;;
65275;SDS011;51875;49.994;14.052;2023-09-19T00:49:06;1.88;;;0.93;;
65275;SDS011;51875;49.994;14.052;2023-09-19T00:50:24;2.35;;;1.33;;
65275;SDS011;51875;49.994;14.052;2023-09-19T00:51:40;2.05;;;1.20;;
65275;SDS011;51875;49.994;14.052;2023-09-19T00:53:01;2.42;;;1.38;;
65275;SDS011;51875;49.994;14.052;2023-09-19T00:54:22;1.73;;;1.10;;
65275;SDS011;51875;49.994;14.052;2023-09-19T00:55:38;2.20;;;1.10;;
65275;SDS011;51875;49.994;14.052;2023-09-19T00:56:55;4.60;;;1.20;;
65275;SDS011;51875;49.994;14.052;2023-09-19T00:58:11;1.63;;;1.20;;
65275;SDS011;51875;49.994;14.052;2023-09-19T00:59:27;2.33;;;1.23;;
65275;SDS011;51875;49.994;14.052;2023-09-19T01:00:45;2.83;;;1.38;;
65275;SDS011;51875;49.994;14.052;2023-09-19T01:02:03;2.17;;;1.40;;
65275;SDS011;51875;49.994;14.052;2023-09-19T01:03:19;1.98;;;1.20;;
65275;SDS011;51875;49.994;14.052;2023-09-19T01:04:35;2.33;;;1.40;;
65275;SDS011;51875;49.994;14.052;2023-09-19T01:05:51;2.38;;;1.40;;
65275;SDS011;51875;49.994;14.052;2023-09-19T01:07:07;1.92;;;1.27;;
65275;SDS011;51875;49.994;14.052;2023-09-19T01:08:23;2.70;;;1.55;;
65275;SDS011;51875;49.994;14.052;2023-09-19T01:09:44;1.88;;;1.20;;
65275;SDS011;51875;49.994;14.052;2023-09-19T01:11:01;3.47;;;1.50;;
65275;SDS011;51875;49.994;14.052;2023-09-19T01:12:35;3.30;;;1.63;;
65275;SDS011;51875;49.994;14.052;2023-09-19T01:14:12;8.48;;;2.05;;
65275;SDS011;51875;49.994;14.052;2023-09-19T01:21:39;4.10;;;1.45;;
65275;SDS011;51875;49.994;14.052;2023-09-19T01:28:48;2.78;;;1.58;;
65275;SDS011;51875;49.994;14.052;2023-09-19T01:30:14;2.83;;;1.30;;
65275;SDS011;51875;49.994;14.052;2023-09-19T01:31:33;1.50;;;1.10;;
65275;SDS011;51875;49.994;14.052;2023-09-19T01:32:52;3.15;;;1.13;;
65275;SDS011;51875;49.994;14.052;2023-09-19T01:34:09;1.65;;;1.10;;
65275;SDS011;51875;49.994;14.052;2023-09-19T01:35:24;1.73;;;1.00;;
65275;SDS011;51875;49.994;14.052;2023-09-19T01:36:40;1.25;;;1.10;;
65275;SDS011;51875;49.994;14.052;2023-09-19T01:37:56;3.85;;;1.25;;
65275;SDS011;51875;49.994;14.052;2023-09-19T01:39:11;3.10;;;1.75;;
65275;SDS011;51875;49.994;14.052;2023-09-19T01:40:28;3.10;;;1.20;;
65275;SDS011;51875;49.994;14.052;2023-09-19T01:43:26;1.40;;;0.90;;
65275;SDS011;51875;49.994;14.052;2023-09-19T01:47:33;3.17;;;1.13;;
65275;SDS011;51875;49.994;14.052;2023-09-19T01:49:00;1.10;;;1.00;;
65275;SDS011;51875;49.994;14.052;2023-09-19T01:50:38;1.20;;;0.90;;
65275;SDS011;51875;49.994;14.052;2023-09-19T01:52:04;2.38;;;1.10;;
65275;SDS011;51875;49.994;14.052;2023-09-19T01:53:41;4.40;;;1.38;;
65275;SDS011;51875;49.994;14.052;2023-09-19T01:55:10;0.90;;;0.80;;
65275;SDS011;51875;49.994;14.052;2023-09-19T01:56:36;1.20;;;1.10;;
65275;SDS011;51875;49.994;14.052;2023-09-19T01:58:01;1.00;;;0.90;;
65275;SDS011;51875;49.994;14.052;2023-09-19T01:59:25;2.05;;;1.00;;
65275;SDS011;51875;49.994;14.052;2023-09-19T02:00:50;2.50;;;1.00;;
65275;SDS011;51875;49.994;14.052;2023-09-19T02:02:07;3.78;;;1.15;;
65275;SDS011;51875;49.994;14.052;2023-09-19T02:03:24;2.35;;;1.00;;
65275;SDS011;51875;49.994;14.052;2023-09-19T02:04:42;1.10;;;0.95;;
65275;SDS011;51875;49.994;14.052;2023-09-19T02:05:58;1.92;;;1.08;;
65275;SDS011;51875;49.994;14.052;2023-09-19T02:07:13;1.88;;;1.38;;
65275;SDS011;51875;49.994;14.052;2023-09-19T02:08:31;3.50;;;1.08;;
65275;SDS011;51875;49.994;14.052;2023-09-19T02:09:49;1.30;;;1.05;;
65275;SDS011;51875;49.994;14.052;2023-09-19T02:11:04;2.28;;;1.15;;
65275;SDS011;51875;49.994;14.052;2023-09-19T02:12:21;1.20;;;1.00;;
65275;SDS011;51875;49.994;14.052;2023-09-19T02:13:36;1.85;;;1.13;;
65275;SDS011;51875;49.994;14.052;2023-09-19T02:14:53;1.58;;;0.90;;
65275;SDS011;51875;49.994;14.052;2023-09-19T02:16:09;1.50;;;0.90;;
65275;SDS011;51875;49.994;14.052;2023-09-19T02:17:26;1.95;;;1.10;;
65275;SDS011;51875;49.994;14.052;2023-09-19T02:18:41;1.60;;;1.20;;
65275;SDS011;51875;49.994;14.052;2023-09-19T02:19:57;1.73;;;1.00;;
65275;SDS011;51875;49.994;14.052;2023-09-19T02:21:14;1.20;;;1.10;;
65275;SDS011;51875;49.994;14.052;2023-09-19T02:22:30;1.15;;;1.00;;
65275;SDS011;51875;49.994;14.052;2023-09-19T02:23:45;1.35;;;1.08;;
65275;SDS011;51875;49.994;14.052;2023-09-19T02:25:02;1.85;;;1.17;;
65275;SDS011;51875;49.994;14.052;2023-09-19T02:26:20;2.75;;;1.13;;
65275;SDS011;51875;49.994;14.052;2023-09-19T02:27:36;1.83;;;1.20;;
65275;SDS011;51875;49.994;14.052;2023-09-19T02:28:52;4.13;;;1.00;;
65275;SDS011;51875;49.994;14.052;2023-09-19T02:30:08;1.70;;;1.38;;
65275;SDS011;51875;49.994;14.052;2023-09-19T02:31:24;2.95;;;1.10;;
65275;SDS011;51875;49.994;14.052;2023-09-19T02:32:39;3.10;;;0.98;;
65275;SDS011;51875;49.994;14.052;2023-09-19T02:33:55;3.58;;;1.20;;
65275;SDS011;51875;49.994;14.052;2023-09-19T02:35:11;3.88;;;1.17;;
65275;SDS011;51875;49.994;14.052;2023-09-19T02:36:27;1.80;;;1.10;;
65275;SDS011;51875;49.994;14.052;2023-09-19T02:37:43;3.38;;;1.08;;
65275;SDS011;51875;49.994;14.052;2023-09-19T02:38:59;2.10;;;1.02;;
65275;SDS011;51875;49.994;14.052;2023-09-19T02:40:15;2.05;;;1.17;;
65275;SDS011;51875;49.994;14.052;2023-09-19T02:41:34;2.15;;;1.00;;
65275;SDS011;51875;49.994;14.052;2023-09-19T02:42:52;2.25;;;1.15;;
65275;SDS011;51875;49.994;14.052;2023-09-19T02:44:08;1.27;;;1.02;;
65275;SDS011;51875;49.994;14.052;2023-09-19T02:45:24;3.70;;;1.40;;
65275;SDS011;51875;49.994;14.052;2023-09-19T02:46:40;1.33;;;1.02;;
65275;SDS011;51875;49.994;14.052;2023-09-19T02:47:56;1.73;;;1.17;;
65275;SDS011;51875;49.994;14.052;2023-09-19T02:49:12;9.70;;;1.20;;
65275;SDS011;51875;49.994;14.052;2023-09-19T02:50:28;1.73;;;1.10;;
65275;SDS011;51875;49.994;14.052;2023-09-19T02:51:44;1.30;;;1.20;;
65275;SDS011;51875;49.994;14.052;2023-09-19T02:53:01;4.75;;;1.25;;
65275;SDS011;51875;49.994;14.052;2023-09-19T02:54:16;1.52;;;1.30;;
65275;SDS011;51875;49.994;14.052;2023-09-19T02:55:32;2.33;;;1.50;;
65275;SDS011;51875;49.994;14.052;2023-09-19T02:56:49;5.32;;;2.00;;
65275;SDS011;51875;49.994;14.052;2023-09-19T02:58:05;1.92;;;1.23;;
65275;SDS011;51875;49.994;14.052;2023-09-19T02:59:23;3.30;;;1.48;;
65275;SDS011;51875;49.994;14.052;2023-09-19T03:00:40;2.47;;;1.88;;
65275;SDS011;51875;49.994;14.052;2023-09-19T03:02:02;2.03;;;1.42;;
65275;SDS011;51875;49.994;14.052;2023-09-19T03:03:19;2.25;;;1.38;;
65275;SDS011;51875;49.994;14.052;2023-09-19T03:04:35;1.90;;;1.30;;
65275;SDS011;51875;49.994;14.052;2023-09-19T03:05:51;3.15;;;1.30;;
65275;SDS011;51875;49.994;14.052;2023-09-19T03:07:08;2.00;;;1.40;;
65275;SDS011;51875;49.994;14.052;2023-09-19T03:08:26;2.65;;;1.30;;
65275;SDS011;51875;49.994;14.052;2023-09-19T03:09:42;2.20;;;1.40;;
65275;SDS011;51875;49.994;14.052;2023-09-19T03:10:57;2.28;;;1.33;;
65275;SDS011;51875;49.994;14.052;2023-09-19T03:12:13;1.80;;;1.30;;
65275;SDS011;51875;49.994;14.052;2023-09-19T03:13:31;2.85;;;1.30;;
65275;SDS011;51875;49.994;14.052;2023-09-19T03:14:47;1.58;;;1.40;;
65275;SDS011;51875;49.994;14.052;2023-09-19T03:16:04;2.58;;;1.58;;
65275;SDS011;51875;49.994;14.052;2023-09-19T03:17:22;2.17;;;1.30;;
65275;SDS011;51875;49.994;14.052;2023-09-19T03:18:37;2.97;;;1.30;;
65275;SDS011;51875;49.994;14.052;2023-09-19T03:19:53;1.73;;;1.38;;
65275;SDS011;51875;49.994;14.052;2023-09-19T03:21:09;2.45;;;1.50;;
65275;SDS011;51875;49.994;14.052;2023-09-19T03:22:26;2.35;;;1.40;;
65275;SDS011;51875;49.994;14.052;2023-09-19T03:23:42;3.83;;;1.52;;
65275;SDS011;51875;49.994;14.052;2023-09-19T03:25:00;1.80;;;1.23;;
65275;SDS011;51875;49.994;14.052;2023-09-19T03:26:16;2.25;;;1.50;;
65275;SDS011;51875;49.994;14.052;2023-09-19T03:27:31;1.90;;;1.35;;
65275;SDS011;51875;49.994;14.052;2023-09-19T03:28:47;3.15;;;1.38;;
65275;SDS011;51875;49.994;14.052;2023-09-19T03:30:03;2.67;;;1.42;;
65275;SDS011;51875;49.994;14.052;2023-09-19T03:31:23;2.00;;;1.40;;
65275;SDS011;51875;49.994;14.052;2023-09-19T03:32:45;5.40;;;2.17;;
65275;SDS011;51875;49.994;14.052;2023-09-19T03:34:02;3.58;;;1.60;;
65275;SDS011;51875;49.994;14.052;2023-09-19T03:35:19;2.03;;;1.35;;
65275;SDS011;51875;49.994;14.052;2023-09-19T03:36:34;1.30;;;1.10;;
65275;SDS011;51875;49.994;14.052;2023-09-19T03:37:50;2.78;;;1.40;;
65275;SDS011;51875;49.994;14.052;2023-09-19T03:39:07;1.60;;;1.33;;
65275;SDS011;51875;49.994;14.052;2023-09-19T03:40:23;2.30;;;1.40;;
65275;SDS011;51875;49.994;14.052;2023-09-19T03:41:40;2.28;;;1.60;;
65275;SDS011;51875;49.994;14.052;2023-09-19T03:42:56;2.10;;;1.50;;
65275;SDS011;51875;49.994;14.052;2023-09-19T03:44:11;1.73;;;1.30;;
65275;SDS011;51875;49.994;14.052;2023-09-19T03:45:27;2.08;;;1.20;;
65275;SDS011;51875;49.994;14.052;2023-09-19T03:46:42;2.75;;;1.50;;
65275;SDS011;51875;49.994;14.052;2023-09-19T03:47:58;2.35;;;1.35;;
65275;SDS011;51875;49.994;14.052;2023-09-19T03:49:13;1.92;;;1.30;;
65275;SDS011;51875;49.994;14.052;2023-09-19T03:50:29;2.67;;;1.63;;
65275;SDS011;51875;49.994;14.052;2023-09-19T03:51:45;2.25;;;1.48;;
65275;SDS011;51875;49.994;14.052;2023-09-19T03:53:00;1.48;;;1.27;;
65275;SDS011;51875;49.994;14.052;2023-09-19T03:54:15;3.10;;;1.60;;
65275;SDS011;51875;49.994;14.052;2023-09-19T03:55:32;5.68;;;1.80;;
65275;SDS011;51875;49.994;14.052;2023-09-19T03:56:50;3.90;;;1.60;;
65275;SDS011;51875;49.994;14.052;2023-09-19T03:58:06;3.58;;;1.40;;
65275;SDS011;51875;49.994;14.052;2023-09-19T03:59:21;1.35;;;1.25;;
65275;SDS011;51875;49.994;14.052;2023-09-19T04:00:37;1.50;;;1.38;;
65275;SDS011;51875;49.994;14.052;2023-09-19T04:01:52;4.30;;;1.40;;
65275;SDS011;51875;49.994;14.052;2023-09-19T04:03:11;1.92;;;1.52;;
65275;SDS011;51875;49.994;14.052;2023-09-19T04:04:34;2.13;;;1.35;;
65275;SDS011;51875;49.994;14.052;2023-09-19T04:05:50;2.60;;;1.50;;
65275;SDS011;51875;49.994;14.052;2023-09-19T04:07:05;2.25;;;1.42;;
65275;SDS011;51875;49.994;14.052;2023-09-19T04:08:21;3.47;;;1.73;;
65275;SDS011;51875;49.994;14.052;2023-09-19T04:09:36;2.55;;;1.60;;
65275;SDS011;51875;49.994;14.052;2023-09-19T04:10:52;2.55;;;1.50;;
65275;SDS011;51875;49.994;14.052;2023-09-19T04:12:08;2.40;;;1.75;;
65275;SDS011;51875;49.994;14.052;2023-09-19T04:13:26;2.53;;;1.80;;
65275;SDS011;51875;49.994;14.052;2023-09-19T04:14:41;2.50;;;1.58;;
65275;SDS011;51875;49.994;14.052;2023-09-19T04:15:57;2.60;;;1.80;;
65275;SDS011;51875;49.994;14.052;2023-09-19T04:17:13;4.07;;;1.70;;
65275;SDS011;51875;49.994;14.052;2023-09-19T04:18:28;2.85;;;1.73;;
65275;SDS011;51875;49.994;14.052;2023-09-19T04:19:46;2.42;;;1.60;;
65275;SDS011;51875;49.994;14.052;2023-09-19T04:21:01;4.43;;;1.58;;
65275;SDS011;51875;49.994;14.052;2023-09-19T04:22:19;2.33;;;1.65;;
65275;SDS011;51875;49.994;14.052;2023-09-19T04:23:34;2.67;;;1.85;;
65275;SDS011;51875;49.994;14.052;2023-09-19T04:24:50;3.00;;;1.50;;
65275;SDS011;51875;49.994;14.052;2023-09-19T04:26:05;3.55;;;1.70;;
65275;SDS011;51875;49.994;14.052;2023-09-19T04:27:21;1.70;;;1.25;;
65275;SDS011;51875;49.994;14.052;2023-09-19T04:28:38;4.00;;;1.70;;
65275;SDS011;51875;49.994;14.052;2023-09-19T04:29:53;2.00;;;1.60;;
65275;SDS011;51875;49.994;14.052;2023-09-19T04:31:14;2.67;;;1.58;;
65275;SDS011;51875;49.994;14.052;2023-09-19T04:32:30;2.88;;;1.80;;
65275;SDS011;51875;49.994;14.052;2023-09-19T04:33:47;4.82;;;1.92;;
65275;SDS011;51875;49.994;14.052;2023-09-19T04:35:03;3.83;;;1.70;;
65275;SDS011;51875;49.994;14.052;2023-09-19T04:36:21;2.83;;;1.50;;
65275;SDS011;51875;49.994;14.052;2023-09-19T04:37:38;2.35;;;1.50;;
65275;SDS011;51875;49.994;14.052;2023-09-19T04:38:54;3.45;;;2.00;;
65275;SDS011;51875;49.994;14.052;2023-09-19T04:40:10;2.25;;;1.70;;
65275;SDS011;51875;49.994;14.052;2023-09-19T04:41:34;3.38;;;1.80;;
65275;SDS011;51875;49.994;14.052;2023-09-19T04:42:55;2.17;;;1.70;;
65275;SDS011;51875;49.994;14.052;2023-09-19T04:44:15;1.80;;;1.50;;
65275;SDS011;51875;49.994;14.052;2023-09-19T04:45:30;2.95;;;1.67;;
65275;SDS011;51875;49.994;14.052;2023-09-19T04:46:46;2.63;;;1.55;;
65275;SDS011;51875;49.994;14.052;2023-09-19T04:48:02;2.22;;;1.60;;
65275;SDS011;51875;49.994;14.052;2023-09-19T04:49:18;2.00;;;1.70;;
65275;SDS011;51875;49.994;14.052;2023-09-19T04:50:34;1.67;;;1.45;;
65275;SDS011;51875;49.994;14.052;2023-09-19T04:51:49;3.10;;;1.85;;
65275;SDS011;51875;49.994;14.052;2023-09-19T04:53:05;7.18;;;1.90;;
65275;SDS011;51875;49.994;14.052;2023-09-19T04:54:22;3.90;;;1.73;;
65275;SDS011;51875;49.994;14.052;2023-09-19T04:55:38;2.40;;;1.60;;
65275;SDS011;51875;49.994;14.052;2023-09-19T04:56:53;3.30;;;1.60;;
65275;SDS011;51875;49.994;14.052;2023-09-19T04:58:09;2.10;;;1.67;;
65275;SDS011;51875;49.994;14.052;2023-09-19T04:59:25;2.67;;;1.70;;
65275;SDS011;51875;49.994;14.052;2023-09-19T05:00:41;1.80;;;1.55;;
65275;SDS011;51875;49.994;14.052;2023-09-19T05:01:56;3.25;;;2.00;;
65275;SDS011;51875;49.994;14.052;2023-09-19T05:03:11;3.05;;;1.73;;
65275;SDS011;51875;49.994;14.052;2023-09-19T05:04:27;3.38;;;1.80;;
65275;SDS011;51875;49.994;14.052;2023-09-19T05:05:43;3.08;;;1.90;;
65275;SDS011;51875;49.994;14.052;2023-09-19T05:06:59;3.20;;;1.80;;
65275;SDS011;51875;49.994;14.052;2023-09-19T05:08:16;3.22;;;1.70;;
65275;SDS011;51875;49.994;14.052;2023-09-19T05:09:32;3.88;;;2.10;;
65275;SDS011;51875;49.994;14.052;2023-09-19T05:10:49;5.43;;;1.95;;
65275;SDS011;51875;49.994;14.052;2023-09-19T05:12:05;2.90;;;1.83;;
65275;SDS011;51875;49.994;14.052;2023-09-19T05:13:21;1.95;;;1.52;;
65275;SDS011;51875;49.994;14.052;2023-09-19T05:14:38;2.20;;;1.70;;
65275;SDS011;51875;49.994;14.052;2023-09-19T05:15:55;3.50;;;2.50;;
65275;SDS011;51875;49.994;14.052;2023-09-19T05:17:17;4.65;;;1.80;;
65275;SDS011;51875;49.994;14.052;2023-09-19T05:18:32;6.03;;;1.92;;
65275;SDS011;51875;49.994;14.052;2023-09-19T05:19:48;3.45;;;1.90;;
65275;SDS011;51875;49.994;14.052;2023-09-19T05:21:04;5.20;;;1.83;;
65275;SDS011;51875;49.994;14.052;2023-09-19T05:22:19;4.28;;;1.60;;
65275;SDS011;51875;49.994;14.052;2023-09-19T05:23:35;2.15;;;1.60;;
65275;SDS011;51875;49.994;14.052;2023-09-19T05:24:52;2.35;;;1.50;;
65275;SDS011;51875;49.994;14.052;2023-09-19T05:26:08;3.17;;;1.77;;
65275;SDS011;51875;49.994;14.052;2023-09-19T05:27:23;2.95;;;1.77;;
65275;SDS011;51875;49.994;14.052;2023-09-19T05:28:39;2.58;;;1.90;;
65275;SDS011;51875;49.994;14.052;2023-09-19T05:29:54;4.03;;;1.85;;
65275;SDS011;51875;49.994;14.052;2023-09-19T05:31:10;3.35;;;1.80;;
65275;SDS011;51875;49.994;14.052;2023-09-19T05:32:26;1.98;;;1.73;;
65275;SDS011;51875;49.994;14.052;2023-09-19T05:33:41;1.85;;;1.58;;
65275;SDS011;51875;49.994;14.052;2023-09-19T05:34:57;3.38;;;1.90;;
65275;SDS011;51875;49.994;14.052;2023-09-19T05:36:13;1.95;;;1.50;;
65275;SDS011;51875;49.994;14.052;2023-09-19T05:37:30;2.33;;;1.60;;
65275;SDS011;51875;49.994;14.052;2023-09-19T05:38:46;4.68;;;1.60;;
65275;SDS011;51875;49.994;14.052;2023-09-19T05:40:05;1.95;;;1.40;;
65275;SDS011;51875;49.994;14.052;2023-09-19T05:41:22;3.63;;;1.60;;
65275;SDS011;51875;49.994;14.052;2023-09-19T05:42:38;2.35;;;1.65;;
65275;SDS011;51875;49.994;14.052;2023-09-19T05:43:54;1.98;;;1.45;;
65275;SDS011;51875;49.994;14.052;2023-09-19T05:45:10;2.53;;;1.80;;
65275;SDS011;51875;49.994;14.052;2023-09-19T05:46:29;1.60;;;1.38;;
65275;SDS011;51875;49.994;14.052;2023-09-19T05:47:44;2.97;;;1.45;;
65275;SDS011;51875;49.994;14.052;2023-09-19T05:49:00;2.83;;;1.70;;
65275;SDS011;51875;49.994;14.052;2023-09-19T05:50:16;2.85;;;1.80;;
65275;SDS011;51875;49.994;14.052;2023-09-19T05:51:33;2.42;;;1.85;;
65275;SDS011;51875;49.994;14.052;2023-09-19T05:52:53;3.60;;;1.77;;
65275;SDS011;51875;49.994;14.052;2023-09-19T05:54:11;2.95;;;1.67;;
65275;SDS011;51875;49.994;14.052;2023-09-19T05:55:26;3.15;;;1.90;;
65275;SDS011;51875;49.994;14.052;2023-09-19T05:56:43;2.95;;;1.67;;
65275;SDS011;51875;49.994;14.052;2023-09-19T05:58:02;2.83;;;1.67;;
65275;SDS011;51875;49.994;14.052;2023-09-19T05:59:19;2.03;;;1.58;;
65275;SDS011;51875;49.994;14.052;2023-09-19T06:00:34;5.28;;;1.70;;
65275;SDS011;51875;49.994;14.052;2023-09-19T06:01:50;2.67;;;1.55;;
65275;SDS011;51875;49.994;14.052;2023-09-19T06:03:07;1.77;;;1.50;;
65275;SDS011;51875;49.994;14.052;2023-09-19T06:04:23;2.22;;;1.60;;
65275;SDS011;51875;49.994;14.052;2023-09-19T06:05:39;2.47;;;1.58;;
65275;SDS011;51875;49.994;14.052;2023-09-19T06:06:56;3.15;;;1.60;;
65275;SDS011;51875;49.994;14.052;2023-09-19T06:08:12;4.00;;;1.55;;
65275;SDS011;51875;49.994;14.052;2023-09-19T06:09:27;3.25;;;1.80;;
65275;SDS011;51875;49.994;14.052;2023-09-19T06:10:43;3.15;;;1.70;;
65275;SDS011;51875;49.994;14.052;2023-09-19T06:11:58;3.10;;;1.73;;
65275;SDS011;51875;49.994;14.052;2023-09-19T06:13:18;2.08;;;1.60;;
65275;SDS011;51875;49.994;14.052;2023-09-19T06:14:34;2.67;;;1.70;;
65275;SDS011;51875;49.994;14.052;2023-09-19T06:15:50;1.75;;;1.38;;
65275;SDS011;51875;49.994;14.052;2023-09-19T06:17:06;3.40;;;1.83;;
65275;SDS011;51875;49.994;14.052;2023-09-19T06:18:22;2.35;;;1.40;;
65275;SDS011;51875;49.994;14.052;2023-09-19T06:19:41;2.78;;;1.50;;
65275;SDS011;51875;49.994;14.052;2023-09-19T06:21:02;2.22;;;1.42;;
65275;SDS011;51875;49.994;14.052;2023-09-19T06:22:23;3.25;;;1.67;;
65275;SDS011;51875;49.994;14.052;2023-09-19T06:23:39;3.65;;;1.90;;
65275;SDS011;51875;49.994;14.052;2023-09-19T06:24:55;1.92;;;1.55;;
65275;SDS011;51875;49.994;14.052;2023-09-19T06:26:11;4.90;;;1.77;;
65275;SDS011;51875;49.994;14.052;2023-09-19T06:27:28;2.20;;;1.50;;
65275;SDS011;51875;49.994;14.052;2023-09-19T06:28:44;3.47;;;1.67;;
65275;SDS011;51875;49.994;14.052;2023-09-19T06:30:00;5.00;;;2.53;;
65275;SDS011;51875;49.994;14.052;2023-09-19T06:31:16;3.90;;;1.95;;
65275;SDS011;51875;49.994;14.052;2023-09-19T06:32:32;3.47;;;1.90;;
65275;SDS011;51875;49.994;14.052;2023-09-19T06:33:48;1.67;;;1.58;;
65275;SDS011;51875;49.994;14.052;2023-09-19T06:35:04;3.58;;;1.60;;
65275;SDS011;51875;49.994;14.052;2023-09-19T06:36:23;3.38;;;1.88;;
65275;SDS011;51875;49.994;14.052;2023-09-19T06:37:38;3.85;;;1.50;;
65275;SDS011;51875;49.994;14.052;2023-09-19T06:38:54;5.03;;;1.58;;
65275;SDS011;51875;49.994;14.052;2023-09-19T06:40:10;2.00;;;1.67;;
65275;SDS011;51875;49.994;14.052;2023-09-19T06:41:30;2.60;;;1.50;;
65275;SDS011;51875;49.994;14.052;2023-09-19T06:42:46;2.83;;;1.58;;
65275;SDS011;51875;49.994;14.052;2023-09-19T06:44:05;2.78;;;1.83;;
65275;SDS011;51875;49.994;14.052;2023-09-19T06:45:21;3.65;;;1.42;;
65275;SDS011;51875;49.994;14.052;2023-09-19T06:46:37;2.97;;;1.70;;
65275;SDS011;51875;49.994;14.052;2023-09-19T06:47:54;3.15;;;1.48;;
65275;SDS011;51875;49.994;14.052;2023-09-19T06:49:12;2.47;;;1.40;;
65275;SDS011;51875;49.994;14.052;2023-09-19T06:50:31;1.92;;;1.58;;
65275;SDS011;51875;49.994;14.052;2023-09-19T06:51:48;2.42;;;1.77;;
65275;SDS011;51875;49.994;14.052;2023-09-19T06:53:04;2.50;;;1.77;;
65275;SDS011;51875;49.994;14.052;2023-09-19T06:54:20;2.30;;;1.50;;
65275;SDS011;51875;49.994;14.052;2023-09-19T06:55:36;3.30;;;1.50;;
65275;SDS011;51875;49.994;14.052;2023-09-19T06:56:51;2.13;;;1.65;;
65275;SDS011;51875;49.994;14.052;2023-09-19T06:58:07;3.10;;;1.35;;
65275;SDS011;51875;49.994;14.052;2023-09-19T06:59:23;1.50;;;1.40;;
65275;SDS011;51875;49.994;14.052;2023-09-19T07:00:39;2.95;;;1.52;;
65275;SDS011;51875;49.994;14.052;2023-09-19T07:01:55;4.93;;;1.80;;
65275;SDS011;51875;49.994;14.052;2023-09-19T07:03:10;1.52;;;1.30;;
65275;SDS011;51875;49.994;14.052;2023-09-19T07:04:28;1.75;;;1.58;;
65275;SDS011;51875;49.994;14.052;2023-09-19T07:05:44;3.72;;;1.83;;
65275;SDS011;51875;49.994;14.052;2023-09-19T07:07:02;3.65;;;1.50;;
65275;SDS011;51875;49.994;14.052;2023-09-19T07:08:18;2.33;;;1.48;;
65275;SDS011;51875;49.994;14.052;2023-09-19T07:09:35;1.60;;;1.42;;
65275;SDS011;51875;49.994;14.052;2023-09-19T07:10:50;2.63;;;1.42;;
65275;SDS011;51875;49.994;14.052;2023-09-19T07:12:07;1.67;;;1.25;;
65275;SDS011;51875;49.994;14.052;2023-09-19T07:13:23;3.30;;;1.42;;
65275;SDS011;51875;49.994;14.052;2023-09-19T07:14:40;3.25;;;1.40;;
65275;SDS011;51875;49.994;14.052;2023-09-19T07:15:56;1.58;;;1.40;;
65275;SDS011;51875;49.994;14.052;2023-09-19T07:17:14;3.20;;;1.70;;
65275;SDS011;51875;49.994;14.052;2023-09-19T07:18:32;3.92;;;1.55;;
65275;SDS011;51875;49.994;14.052;2023-09-19T07:19:48;2.70;;;1.50;;
65275;SDS011;51875;49.994;14.052;2023-09-19T07:21:05;1.80;;;1.42;;
65275;SDS011;51875;49.994;14.052;2023-09-19T07:22:20;1.77;;;1.40;;
65275;SDS011;51875;49.994;14.052;2023-09-19T07:23:35;1.42;;;1.30;;
65275;SDS011;51875;49.994;14.052;2023-09-19T07:24:51;2.15;;;1.63;;
65275;SDS011;51875;49.994;14.052;2023-09-19T07:26:07;4.13;;;1.60;;
65275;SDS011;51875;49.994;14.052;2023-09-19T07:27:23;2.90;;;1.60;;
65275;SDS011;51875;49.994;14.052;2023-09-19T07:28:38;1.85;;;1.58;;
65275;SDS011;51875;49.994;14.052;2023-09-19T07:29:54;2.35;;;1.55;;
65275;SDS011;51875;49.994;14.052;2023-09-19T07:31:10;3.30;;;1.60;;
65275;SDS011;51875;49.994;14.052;2023-09-19T07:32:25;3.05;;;1.98;;
65275;SDS011;51875;49.994;14.052;2023-09-19T07:33:41;5.22;;;1.67;;
65275;SDS011;51875;49.994;14.052;2023-09-19T07:34:58;1.90;;;1.40;;
65275;SDS011;51875;49.994;14.052;2023-09-19T07:36:13;2.83;;;1.50;;
65275;SDS011;51875;49.994;14.052;2023-09-19T07:37:29;2.45;;;1.50;;
65275;SDS011;51875;49.994;14.052;2023-09-19T07:38:48;3.88;;;1.52;;
65275;SDS011;51875;49.994;14.052;2023-09-19T07:40:04;2.38;;;1.25;;
65275;SDS011;51875;49.994;14.052;2023-09-19T07:41:24;2.33;;;1.58;;
65275;SDS011;51875;49.994;14.052;2023-09-19T07:42:40;3.60;;;1.48;;
65275;SDS011;51875;49.994;14.052;2023-09-19T07:43:56;2.25;;;1.52;;
65275;SDS011;51875;49.994;14.052;2023-09-19T07:45:12;3.35;;;1.80;;
65275;SDS011;51875;49.994;14.052;2023-09-19T07:46:31;4.90;;;1.90;;
65275;SDS011;51875;49.994;14.052;2023-09-19T07:47:47;4.90;;;1.63;;
65275;SDS011;51875;49.994;14.052;2023-09-19T07:49:04;2.65;;;1.80;;
65275;SDS011;51875;49.994;14.052;2023-09-19T07:50:20;2.47;;;1.80;;
65275;SDS011;51875;49.994;14.052;2023-09-19T07:51:38;2.60;;;1.73;;
65275;SDS011;51875;49.994;14.052;2023-09-19T07:52:55;2.97;;;2.00;;